createdAt,value
2018-06-27T00:00:06.322Z,19.4
2018-06-27T00:05:01.618Z,19.9
2018-06-27T00:10:01.324Z,19.5
2018-06-27T00:15:02.359Z,19.4
2018-06-27T00:25:02.350Z,20.2
2018-06-27T00:30:06.402Z,20.4
2018-06-27T00:35:01.656Z,21.2
2018-06-27T00:40:01.499Z,21.8
2018-06-27T00:45:01.279Z,23.5
2018-06-27T00:50:01.503Z,23.6
2018-06-27T00:55:01.319Z,23.6
2018-06-27T01:00:01.429Z,23.8
2018-06-27T01:05:01.343Z,23.8
2018-06-27T01:10:01.858Z,22.7
2018-06-27T01:15:01.282Z,22.6
2018-06-27T01:20:02.188Z,22.6
2018-06-27T01:25:01.286Z,22.2
2018-06-27T01:30:06.362Z,22.2
2018-06-27T01:35:01.294Z,21.8
2018-06-27T01:40:01.528Z,21.6
2018-06-27T01:45:01.369Z,21.7
2018-06-27T01:50:06.433Z,22.6
2018-06-27T01:55:01.400Z,22.7
2018-06-27T02:00:01.430Z,22.8
2018-06-27T02:05:01.631Z,23.3
2018-06-27T02:10:01.371Z,23.6
2018-06-27T02:15:01.511Z,23.2
2018-06-27T02:20:06.442Z,23.2
2018-06-27T02:25:01.341Z,23.4
2018-06-27T02:30:01.519Z,22.8
2018-06-27T02:40:01.496Z,23.1
2018-06-27T02:45:02.312Z,24.2
2018-06-27T02:50:02.423Z,23.7
2018-06-27T02:55:06.326Z,24.8
2018-06-27T03:00:01.457Z,24.8
2018-06-27T03:05:01.392Z,25.2
2018-06-27T03:10:01.377Z,24.4
2018-06-27T03:15:01.343Z,25.9
2018-06-27T03:20:02.752Z,25.7
2018-06-27T03:25:01.404Z,26.4
2018-06-27T03:30:01.548Z,26.8
2018-06-27T03:35:01.401Z,26.0
2018-06-27T03:40:01.701Z,26.3
2018-06-27T03:45:01.540Z,26.5
2018-06-27T03:50:01.487Z,26.8
2018-06-27T03:55:06.415Z,27.1
2018-06-27T04:00:01.547Z,28.6
2018-06-27T04:05:01.419Z,28.6
2018-06-27T04:10:01.942Z,28.4
2018-06-27T04:15:06.343Z,28.8
2018-06-27T04:20:01.609Z,27.7
2018-06-27T04:25:06.473Z,27.1
2018-06-27T04:30:01.565Z,26.4
2018-06-27T04:35:01.333Z,27.2
2018-06-27T04:40:01.496Z,27.2
2018-06-27T04:45:01.340Z,27.9
2018-06-27T04:50:01.891Z,28.2
2018-06-27T04:55:01.449Z,28.8
2018-06-27T05:00:02.662Z,28.5
2018-06-27T05:05:01.510Z,28.0
2018-06-27T05:10:01.517Z,27.4
2018-06-27T05:15:01.728Z,27.6
2018-06-27T05:20:01.447Z,28.0
2018-06-27T05:25:01.445Z,28.0
2018-06-27T05:30:01.446Z,26.7
2018-06-27T05:35:01.375Z,27.1
2018-06-27T05:40:02.494Z,26.6
2018-06-27T05:45:01.676Z,25.4
2018-06-27T05:50:01.578Z,24.6
2018-06-27T05:55:01.459Z,25.1
2018-06-27T06:00:02.762Z,24.4
2018-06-27T06:05:01.612Z,24.1
2018-06-27T06:10:06.512Z,23.5
2018-06-27T06:15:01.615Z,23.0
2018-06-27T06:20:01.987Z,22.7
2018-06-27T06:25:01.498Z,22.6
2018-06-27T06:30:02.274Z,22.0
2018-06-27T06:35:06.383Z,22.0
2018-06-27T06:40:01.479Z,21.9
2018-06-27T06:45:01.373Z,20.7
2018-06-27T06:50:01.647Z,20.6
2018-06-27T06:55:01.386Z,20.9
2018-06-27T07:00:01.447Z,21.3
2018-06-27T07:05:01.540Z,21.6
2018-06-27T07:10:01.986Z,22.3
2018-06-27T07:15:01.353Z,21.5
2018-06-27T07:20:01.637Z,20.8
2018-06-27T07:25:01.767Z,19.6
2018-06-27T07:30:01.767Z,18.5
2018-06-27T07:35:01.488Z,18.2
2018-06-27T07:40:01.968Z,17.8
2018-06-27T07:45:01.441Z,17.4
2018-06-27T07:50:01.502Z,17.9
2018-06-27T07:55:01.480Z,18.2
2018-06-27T08:00:01.826Z,17.1
2018-06-27T08:05:06.433Z,17.3
2018-06-27T08:10:02.218Z,17.0
2018-06-27T08:15:01.389Z,15.4
2018-06-27T08:20:01.447Z,14.4
2018-06-27T08:25:01.451Z,14.2
2018-06-27T08:30:01.608Z,13.9
2018-06-27T08:35:01.346Z,14.0
2018-06-27T08:40:01.534Z,15.6
2018-06-27T08:45:01.532Z,16.2
2018-06-27T08:50:01.566Z,17.4
2018-06-27T08:55:06.773Z,18.0
2018-06-27T09:00:01.512Z,18.3
2018-06-27T09:05:01.570Z,17.8
2018-06-27T09:15:01.570Z,17.5
2018-06-27T09:20:01.543Z,16.7
2018-06-27T09:25:01.573Z,16.0
2018-06-27T09:30:01.514Z,15.7
2018-06-27T09:40:06.623Z,15.0
2018-06-27T09:45:01.698Z,15.4
2018-06-27T09:50:01.953Z,16.1
2018-06-27T09:55:02.446Z,16.7
2018-06-27T10:00:01.452Z,17.5
2018-06-27T10:05:01.455Z,17.5
2018-06-27T10:10:01.504Z,17.2
2018-06-27T10:15:01.369Z,16.8
2018-06-27T10:20:02.139Z,15.6
2018-06-27T10:25:01.482Z,14.6
2018-06-27T10:30:01.470Z,14.0
2018-06-27T10:35:01.379Z,13.3
2018-06-27T10:40:01.422Z,12.4
2018-06-27T10:45:01.704Z,12.7
2018-06-27T10:50:01.597Z,13.0
2018-06-27T10:55:01.545Z,13.6
2018-06-27T11:00:02.177Z,14.4
2018-06-27T11:05:02.509Z,15.5
2018-06-27T11:10:02.027Z,16.0
2018-06-27T11:15:01.389Z,15.5
2018-06-27T11:20:01.511Z,14.5
2018-06-27T11:25:01.377Z,13.5
2018-06-27T11:30:01.578Z,12.2
2018-06-27T11:35:06.411Z,11.4
2018-06-27T11:40:02.180Z,11.3
2018-06-27T11:45:01.541Z,11.9
2018-06-27T11:50:02.669Z,12.7
2018-06-27T11:55:01.419Z,13.1
2018-06-27T12:00:01.705Z,12.7
2018-06-27T12:06:01.894Z,11.7
2018-06-27T12:11:01.629Z,10.5
2018-06-27T12:16:01.431Z,8.8
2018-06-27T12:21:01.512Z,7.2
2018-06-27T12:26:01.384Z,6.4
2018-06-27T12:31:01.516Z,5.6
2018-06-27T12:36:01.390Z,5.4
2018-06-27T12:42:02.233Z,5.1
2018-06-27T12:47:01.386Z,4.7
2018-06-27T12:52:01.667Z,4.4
2018-06-27T12:57:01.372Z,4.8
2018-06-27T13:02:01.642Z,4.9
2018-06-27T13:07:01.498Z,5.1
2018-06-27T13:12:01.452Z,5.5
2018-06-27T13:18:01.378Z,5.7
2018-06-27T13:23:01.443Z,5.0
2018-06-27T13:28:06.614Z,4.2
2018-06-27T13:33:01.508Z,3.4
2018-06-27T13:38:01.493Z,2.5
2018-06-27T13:43:01.522Z,2.3
2018-06-27T13:54:01.455Z,2.4
2018-06-27T13:59:01.447Z,2.4
2018-06-27T14:14:01.516Z,2.2
2018-06-27T14:19:02.233Z,2.3
2018-06-27T14:30:01.739Z,2.5
2018-06-27T14:40:02.176Z,2.7
2018-06-27T14:45:01.774Z,3.1
2018-06-27T14:50:01.839Z,3.0
2018-06-27T14:55:01.582Z,2.9
2018-06-27T15:00:02.229Z,2.8
2018-06-27T15:10:01.635Z,2.6
2018-06-27T15:15:01.376Z,2.7
2018-06-27T15:20:01.505Z,2.9
2018-06-27T15:25:01.389Z,3.0
2018-06-27T15:30:02.313Z,2.8
2018-06-27T15:35:01.508Z,2.7
2018-06-27T15:40:01.813Z,2.8
2018-06-27T15:45:01.434Z,2.8
2018-06-27T15:50:01.568Z,2.6
2018-06-27T15:55:01.383Z,2.8
2018-06-27T16:00:01.508Z,2.8
2018-06-27T16:05:01.771Z,2.9
2018-06-27T16:15:01.495Z,3.0
2018-06-27T16:20:02.017Z,2.6
2018-06-27T16:25:01.790Z,2.4
2018-06-27T16:30:01.693Z,2.4
2018-06-27T16:35:01.454Z,2.2
2018-06-27T16:40:01.613Z,2.0
2018-06-27T16:45:01.382Z,2.2
2018-06-27T16:50:01.882Z,2.3
2018-06-27T17:00:01.630Z,2.6
2018-06-27T17:15:01.827Z,2.7
2018-06-27T17:20:01.631Z,2.7
2018-06-27T17:25:01.385Z,2.6
2018-06-27T17:30:01.593Z,3.0
2018-06-27T17:40:01.642Z,2.9
2018-06-27T17:45:01.505Z,2.8
2018-06-27T17:55:01.587Z,2.6
2018-06-27T18:00:01.446Z,2.8
2018-06-27T18:05:01.442Z,2.9
2018-06-27T18:10:01.508Z,3.6
2018-06-27T18:15:02.498Z,4.0
2018-06-27T18:20:01.925Z,4.5
2018-06-27T18:25:01.913Z,5.0
2018-06-27T18:30:02.401Z,5.4
2018-06-27T18:35:01.707Z,5.2
2018-06-27T18:40:01.506Z,5.8
2018-06-27T18:46:01.380Z,5.9
2018-06-27T18:51:01.497Z,5.8
2018-06-27T18:56:01.441Z,5.6
2018-06-27T19:06:01.582Z,5.2
2018-06-27T19:16:01.469Z,5.4
2018-06-27T19:21:01.466Z,5.6
2018-06-27T19:26:01.374Z,5.9
2018-06-27T19:31:01.603Z,6.1
2018-06-27T19:36:01.412Z,6.4
2018-06-27T19:41:01.934Z,6.2
2018-06-27T19:46:01.480Z,6.3
2018-06-27T19:51:01.627Z,6.7
2018-06-27T20:07:01.434Z,7.4
2018-06-27T20:12:01.569Z,7.4
2018-06-27T20:22:01.691Z,7.0
2018-06-27T20:27:01.414Z,6.9
2018-06-27T20:32:01.351Z,6.8
2018-06-27T20:42:01.506Z,6.7
2018-06-27T20:47:01.452Z,7.0
2018-06-27T20:52:01.459Z,7.0
2018-06-27T20:57:01.445Z,6.6
2018-06-27T21:02:01.507Z,6.8
2018-06-27T21:07:06.394Z,6.9
2018-06-27T21:12:01.545Z,6.8
2018-06-27T21:17:06.419Z,6.8
2018-06-27T21:22:01.391Z,7.2
2018-06-27T21:28:01.411Z,7.0
2018-06-27T21:33:01.489Z,6.9
2018-06-27T21:38:01.402Z,6.6
2018-06-27T21:43:01.705Z,7.1
2018-06-27T21:48:01.732Z,7.3
2018-06-27T21:53:01.547Z,7.7
2018-06-27T21:58:01.376Z,8.0
2018-06-27T22:03:01.457Z,8.6
2018-06-27T22:08:06.387Z,8.8
2018-06-27T22:13:01.535Z,8.7
2018-06-27T22:18:01.338Z,8.1
2018-06-27T22:23:01.441Z,7.8
2018-06-27T22:38:01.480Z,7.9
2018-06-27T22:43:01.469Z,8.6
2018-06-27T22:48:01.453Z,9.3
2018-06-27T22:53:01.421Z,9.6
2018-06-27T22:58:01.437Z,9.4
2018-06-27T23:03:01.375Z,9.8
2018-06-27T23:08:01.376Z,9.3
2018-06-27T23:13:01.521Z,8.7
2018-06-27T23:18:01.380Z,8.3
2018-06-27T23:23:01.509Z,8.2
2018-06-27T23:28:01.382Z,7.8
2018-06-27T23:38:01.510Z,7.6
2018-06-27T23:43:02.436Z,7.1
2018-06-27T23:48:01.340Z,6.7
2018-06-27T23:53:01.446Z,6.7
2018-06-27T23:58:01.375Z,7.0
